UAL200 PGUM-PHNL
Flight info
| Callsign | UAL200 |
|---|---|
| Flight time | 6h 24m |
| Altitude | 39000 |
| Route | DEWSS A450 NATIE/N0486F410 A450 BRIUN NONNI BOOKE BOOKE8 |
| Aircraft | B788/H-L/3033 |
Departure
| Time | 2026-04-25 07:03 |
|---|---|
| Airport | Antonio B. Won Pat International Airport (PGUM) |
Arrival
| Time | 2026-04-25 13:28 |
|---|---|
| Airport | Daniel K. Inouye International Airport (PHNL) |
| Time | Latitude | Longitude | Altitude | Speed | Heading |
|---|---|---|---|---|---|
| 2026-04-25 07:02 | 13.47911 | 144.78443 | 311 ft | 0 kts | 65° |
| 2026-04-25 07:03 | 13.47952 | 144.78533 | 311 ft | 54 kts | 65° |
| 2026-04-25 07:03 | 13.48263 | 144.79207 | 311 ft | 149 kts | 64° |
| 2026-04-25 07:03 | 13.48745 | 144.80251 | 1141 ft | 159 kts | 64° |
| 2026-04-25 07:03 | 13.49087 | 144.81312 | 2255 ft | 156 kts | 71° |
| 2026-04-25 07:04 | 13.49407 | 144.82411 | 3008 ft | 166 kts | 72° |
| 2026-04-25 07:04 | 13.49764 | 144.83594 | 3645 ft | 179 kts | 72° |
| 2026-04-25 07:04 | 13.50163 | 144.84859 | 4189 ft | 196 kts | 71° |
| 2026-04-25 07:04 | 13.50621 | 144.86254 | 4691 ft | 214 kts | 71° |
| 2026-04-25 07:05 | 13.51120 | 144.87747 | 5191 ft | 233 kts | 71° |
| 2026-04-25 07:05 | 13.51670 | 144.89376 | 5819 ft | 248 kts | 70° |
| 2026-04-25 07:05 | 13.52247 | 144.91075 | 6624 ft | 256 kts | 70° |
| 2026-04-25 07:05 | 13.52842 | 144.92823 | 7470 ft | 262 kts | 70° |
| 2026-04-25 07:06 | 13.53452 | 144.94611 | 8306 ft | 268 kts | 69° |
| 2026-04-25 07:06 | 13.54078 | 144.96441 | 9112 ft | 274 kts | 69° |
| 2026-04-25 07:06 | 13.54717 | 144.98306 | 9924 ft | 279 kts | 69° |
| 2026-04-25 07:06 | 13.55374 | 145.00225 | 10597 ft | 291 kts | 69° |
| 2026-04-25 07:07 | 13.56068 | 145.02250 | 11076 ft | 309 kts | 69° |
| 2026-04-25 07:07 | 13.56806 | 145.04401 | 11528 ft | 328 kts | 69° |
| 2026-04-25 07:07 | 13.57575 | 145.06647 | 11949 ft | 346 kts | 69° |
| 2026-04-25 07:07 | 13.58396 | 145.09047 | 12342 ft | 365 kts | 69° |
| 2026-04-25 07:08 | 13.59272 | 145.11608 | 12702 ft | 385 kts | 69° |
| 2026-04-25 07:08 | 13.60168 | 145.14229 | 13069 ft | 402 kts | 69° |
| 2026-04-25 07:08 | 13.61108 | 145.16982 | 13590 ft | 414 kts | 69° |
| 2026-04-25 07:08 | 13.62073 | 145.19815 | 14194 ft | 423 kts | 69° |
| 2026-04-25 07:09 | 13.63054 | 145.22691 | 14844 ft | 430 kts | 69° |
| 2026-04-25 07:09 | 13.64048 | 145.25607 | 15571 ft | 434 kts | 69° |
| 2026-04-25 07:09 | 13.65048 | 145.28548 | 16306 ft | 437 kts | 69° |
| 2026-04-25 07:09 | 13.66044 | 145.31474 | 17007 ft | 441 kts | 70° |
| 2026-04-25 07:10 | 13.67064 | 145.34469 | 17663 ft | 444 kts | 70° |
| 2026-04-25 07:10 | 13.68090 | 145.37484 | 18283 ft | 449 kts | 70° |
| 2026-04-25 07:10 | 13.69127 | 145.40530 | 18863 ft | 453 kts | 70° |
| 2026-04-25 07:10 | 13.70170 | 145.43595 | 19411 ft | 458 kts | 70° |
| 2026-04-25 07:11 | 13.71225 | 145.46701 | 19987 ft | 461 kts | 70° |
| 2026-04-25 07:11 | 13.72284 | 145.49820 | 20536 ft | 464 kts | 70° |
| 2026-04-25 07:11 | 13.73355 | 145.52973 | 21061 ft | 468 kts | 70° |
| 2026-04-25 07:11 | 13.74433 | 145.56150 | 21575 ft | 471 kts | 70° |
| 2026-04-25 07:12 | 13.75518 | 145.59350 | 22040 ft | 475 kts | 70° |
| 2026-04-25 07:12 | 13.77713 | 145.65827 | 23002 ft | 481 kts | 70° |
| 2026-04-25 07:12 | 13.78817 | 145.69085 | 23437 ft | 485 kts | 70° |
| 2026-04-25 07:13 | 13.79920 | 145.72344 | 23737 ft | 492 kts | 70° |
| 2026-04-25 07:13 | 13.81057 | 145.75703 | 23969 ft | 499 kts | 70° |
| 2026-04-25 07:13 | 13.82201 | 145.79078 | 24572 ft | 498 kts | 70° |
| 2026-04-25 07:13 | 13.83336 | 145.82435 | 25136 ft | 498 kts | 70° |
| 2026-04-25 07:14 | 13.84476 | 145.85813 | 25588 ft | 500 kts | 70° |
| 2026-04-25 07:14 | 13.85621 | 145.89206 | 25976 ft | 503 kts | 70° |
| 2026-04-25 07:14 | 13.86757 | 145.92575 | 26307 ft | 507 kts | 70° |
| 2026-04-25 07:14 | 13.87921 | 145.96024 | 26628 ft | 511 kts | 70° |
| 2026-04-25 07:15 | 13.89091 | 145.99494 | 26970 ft | 515 kts | 70° |
| 2026-04-25 07:15 | 13.90267 | 146.02983 | 27348 ft | 518 kts | 70° |
| 2026-04-25 07:15 | 13.91455 | 146.06506 | 27738 ft | 522 kts | 70° |
| 2026-04-25 07:15 | 13.92243 | 146.08847 | 27988 ft | 524 kts | 69° |
| 2026-04-25 07:16 | 13.93849 | 146.13616 | 28459 ft | 530 kts | 69° |
| 2026-04-25 07:16 | 13.94654 | 146.16005 | 28687 ft | 533 kts | 69° |
| 2026-04-25 07:16 | 13.95874 | 146.19633 | 29035 ft | 538 kts | 69° |
| 2026-04-25 07:16 | 13.97102 | 146.23283 | 29427 ft | 542 kts | 69° |
| 2026-04-25 07:17 | 13.98339 | 146.26967 | 29885 ft | 544 kts | 69° |
| 2026-04-25 07:17 | 13.99574 | 146.30647 | 30355 ft | 545 kts | 69° |
| 2026-04-25 07:17 | 14.00817 | 146.34349 | 30809 ft | 547 kts | 70° |
| 2026-04-25 07:17 | 14.02064 | 146.38065 | 31268 ft | 549 kts | 70° |
| 2026-04-25 07:18 | 14.03311 | 146.41782 | 31736 ft | 550 kts | 70° |
| 2026-04-25 07:18 | 14.04557 | 146.45499 | 32212 ft | 551 kts | 70° |
| 2026-04-25 07:18 | 14.05790 | 146.49187 | 32748 ft | 550 kts | 70° |
| 2026-04-25 07:18 | 14.07034 | 146.52912 | 33299 ft | 549 kts | 70° |
| 2026-04-25 07:19 | 14.08271 | 146.56619 | 33849 ft | 547 kts | 70° |
| 2026-04-25 07:19 | 14.09508 | 146.60324 | 34394 ft | 546 kts | 70° |
| 2026-04-25 07:19 | 14.10743 | 146.64022 | 34935 ft | 544 kts | 70° |
| 2026-04-25 07:19 | 14.11968 | 146.67695 | 35462 ft | 543 kts | 70° |
| 2026-04-25 07:20 | 14.13197 | 146.71377 | 35980 ft | 541 kts | 70° |
| 2026-04-25 07:20 | 14.14419 | 146.75042 | 36486 ft | 540 kts | 70° |
| 2026-04-25 07:20 | 14.15636 | 146.78696 | 36981 ft | 538 kts | 70° |
| 2026-04-25 07:20 | 14.16852 | 146.82344 | 37483 ft | 536 kts | 70° |
| 2026-04-25 07:21 | 14.18060 | 146.85971 | 37951 ft | 535 kts | 70° |
| 2026-04-25 07:21 | 14.19266 | 146.89596 | 38413 ft | 533 kts | 70° |
| 2026-04-25 07:21 | 14.20467 | 146.93206 | 38742 ft | 532 kts | 70° |
| 2026-04-25 07:21 | 14.21649 | 146.96764 | 38915 ft | 529 kts | 70° |
| 2026-04-25 07:22 | 14.24022 | 147.03912 | 38983 ft | 524 kts | 70° |
| 2026-04-25 07:22 | 14.26374 | 147.11004 | 38997 ft | 518 kts | 70° |
| 2026-04-25 07:23 | 14.28697 | 147.18017 | 39004 ft | 516 kts | 70° |
| 2026-04-25 07:23 | 14.31006 | 147.24990 | 39000 ft | 518 kts | 70° |
| 2026-04-25 07:24 | 14.33334 | 147.32030 | 38995 ft | 518 kts | 70° |
| 2026-04-25 07:24 | 14.35653 | 147.39055 | 39004 ft | 517 kts | 70° |
| 2026-04-25 07:25 | 14.37977 | 147.46101 | 38996 ft | 518 kts | 70° |
| 2026-04-25 07:25 | 14.40299 | 147.53147 | 39000 ft | 517 kts | 70° |
| 2026-04-25 07:26 | 14.42594 | 147.60120 | 39005 ft | 517 kts | 70° |
| 2026-04-25 07:26 | 14.44911 | 147.67170 | 38994 ft | 518 kts | 70° |
| 2026-04-25 07:27 | 14.47221 | 147.74203 | 39002 ft | 517 kts | 70° |
| 2026-04-25 07:27 | 14.49532 | 147.81246 | 39002 ft | 518 kts | 71° |
| 2026-04-25 07:28 | 14.51818 | 147.88213 | 39182 ft | 504 kts | 71° |
| 2026-04-25 07:28 | 14.52941 | 147.91648 | 39027 ft | 494 kts | 71° |
| 2026-04-25 07:28 | 14.54024 | 147.94967 | 39003 ft | 495 kts | 71° |
| 2026-04-25 07:29 | 14.56247 | 148.01768 | 39000 ft | 505 kts | 71° |
| 2026-04-25 07:29 | 14.58518 | 148.08717 | 39000 ft | 516 kts | 71° |
| 2026-04-25 07:30 | 14.60830 | 148.15802 | 38993 ft | 520 kts | 71° |
| 2026-04-25 07:30 | 14.63119 | 148.22829 | 39002 ft | 518 kts | 71° |
| 2026-04-25 07:31 | 14.65417 | 148.29889 | 39002 ft | 520 kts | 71° |
| 2026-04-25 07:31 | 14.67721 | 148.36976 | 38995 ft | 521 kts | 71° |
| 2026-04-25 07:32 | 14.70023 | 148.44064 | 39005 ft | 519 kts | 71° |
| 2026-04-25 07:32 | 14.72320 | 148.51146 | 39001 ft | 520 kts | 71° |
| 2026-04-25 07:33 | 14.74619 | 148.58241 | 38994 ft | 520 kts | 71° |
| 2026-04-25 07:33 | 14.76912 | 148.65326 | 39009 ft | 518 kts | 71° |
| 2026-04-25 07:34 | 14.79168 | 148.72306 | 38992 ft | 513 kts | 71° |
| 2026-04-25 07:34 | 14.81435 | 148.79325 | 39003 ft | 517 kts | 71° |
| 2026-04-25 07:35 | 14.83714 | 148.86391 | 39002 ft | 518 kts | 71° |
| 2026-04-25 07:35 | 14.85986 | 148.93445 | 38993 ft | 517 kts | 71° |
| 2026-04-25 07:36 | 14.88112 | 149.00490 | 39006 ft | 516 kts | 73° |
| 2026-04-25 07:36 | 14.90089 | 149.07645 | 38997 ft | 518 kts | 74° |
| 2026-04-25 07:37 | 14.92027 | 149.14812 | 38999 ft | 517 kts | 74° |
| 2026-04-25 07:37 | 14.93964 | 149.21985 | 39005 ft | 517 kts | 74° |
| 2026-04-25 07:38 | 14.95891 | 149.29117 | 38993 ft | 518 kts | 74° |
| 2026-04-25 07:38 | 14.97837 | 149.36323 | 39005 ft | 520 kts | 74° |
| 2026-04-25 07:39 | 14.99785 | 149.43549 | 38999 ft | 520 kts | 74° |
| 2026-04-25 07:39 | 15.01726 | 149.50760 | 38996 ft | 519 kts | 74° |
| 2026-04-25 07:40 | 15.03648 | 149.57908 | 39006 ft | 519 kts | 74° |
| 2026-04-25 07:40 | 15.05599 | 149.65171 | 38995 ft | 520 kts | 74° |
| 2026-04-25 07:41 | 15.07517 | 149.72324 | 39000 ft | 519 kts | 74° |
| 2026-04-25 07:41 | 15.09452 | 149.79545 | 39005 ft | 523 kts | 74° |
| 2026-04-25 07:42 | 15.11398 | 149.86824 | 38995 ft | 523 kts | 74° |
| 2026-04-25 07:42 | 15.13335 | 149.94075 | 39000 ft | 522 kts | 74° |
| 2026-04-25 07:43 | 15.15242 | 150.01223 | 38989 ft | 508 kts | 75° |
| 2026-04-25 07:43 | 15.16164 | 150.04686 | 38966 ft | 490 kts | 74° |
| 2026-04-25 07:43 | 15.17069 | 150.08088 | 38940 ft | 479 kts | 74° |
| 2026-04-25 07:44 | 15.18839 | 150.14742 | 38967 ft | 487 kts | 74° |
| 2026-04-25 07:44 | 15.20654 | 150.21570 | 39003 ft | 496 kts | 74° |
| 2026-04-25 07:45 | 15.22501 | 150.28531 | 39004 ft | 506 kts | 75° |
| 2026-04-25 07:45 | 15.24384 | 150.35639 | 38997 ft | 517 kts | 75° |
| 2026-04-25 07:46 | 15.26292 | 150.42850 | 39004 ft | 522 kts | 74° |
| 2026-04-25 07:46 | 15.28198 | 150.50063 | 38991 ft | 517 kts | 74° |
| 2026-04-25 07:47 | 15.30094 | 150.57245 | 39005 ft | 517 kts | 75° |
| 2026-04-25 07:47 | 15.31992 | 150.64451 | 38998 ft | 520 kts | 75° |
| 2026-04-25 07:48 | 15.33883 | 150.71638 | 38995 ft | 518 kts | 75° |
| 2026-04-25 07:48 | 15.35776 | 150.78842 | 39003 ft | 520 kts | 75° |
| 2026-04-25 07:49 | 15.37683 | 150.86108 | 39001 ft | 522 kts | 75° |
| 2026-04-25 07:49 | 15.39584 | 150.93365 | 38994 ft | 521 kts | 75° |
| 2026-04-25 07:50 | 15.41482 | 151.00618 | 39007 ft | 521 kts | 75° |
| 2026-04-25 07:50 | 15.43379 | 151.07878 | 38997 ft | 522 kts | 75° |
| 2026-04-25 07:51 | 15.45274 | 151.15142 | 38998 ft | 520 kts | 75° |
| 2026-04-25 07:51 | 15.47163 | 151.22392 | 39007 ft | 521 kts | 75° |
| 2026-04-25 07:52 | 15.49044 | 151.29622 | 38995 ft | 522 kts | 75° |
| 2026-04-25 07:52 | 15.50940 | 151.36921 | 39004 ft | 525 kts | 75° |
| 2026-04-25 07:53 | 15.52841 | 151.44248 | 39000 ft | 525 kts | 75° |
| 2026-04-25 07:53 | 15.54721 | 151.51507 | 38995 ft | 525 kts | 75° |
| 2026-04-25 07:54 | 15.56623 | 151.58861 | 39008 ft | 524 kts | 75° |
| 2026-04-25 07:54 | 15.58516 | 151.66189 | 38996 ft | 526 kts | 75° |
| 2026-04-25 07:55 | 15.60391 | 151.73459 | 39000 ft | 524 kts | 75° |
| 2026-04-25 07:55 | 15.62272 | 151.80762 | 39001 ft | 526 kts | 75° |
| 2026-04-25 07:56 | 15.64170 | 151.88145 | 38996 ft | 529 kts | 75° |
| 2026-04-25 07:56 | 15.66065 | 151.95526 | 39001 ft | 527 kts | 75° |
| 2026-04-25 07:57 | 15.67955 | 152.02901 | 39004 ft | 529 kts | 75° |
| 2026-04-25 07:57 | 15.69835 | 152.10245 | 38993 ft | 529 kts | 75° |
| 2026-04-25 07:58 | 15.71706 | 152.17566 | 38967 ft | 514 kts | 75° |
| 2026-04-25 07:58 | 15.72608 | 152.21099 | 38698 ft | 499 kts | 75° |
| 2026-04-25 07:58 | 15.73475 | 152.24495 | 38861 ft | 478 kts | 75° |
| 2026-04-25 07:59 | 15.75177 | 152.31170 | 38978 ft | 480 kts | 75° |
| 2026-04-25 07:59 | 15.76890 | 152.37909 | 39007 ft | 490 kts | 75° |
| 2026-04-25 08:00 | 15.78647 | 152.44817 | 39000 ft | 500 kts | 75° |
| 2026-04-25 08:00 | 15.80151 | 152.50734 | 38997 ft | 508 kts | 75° |
| 2026-04-25 08:01 | 15.81958 | 152.57862 | 39005 ft | 519 kts | 75° |
| 2026-04-25 08:01 | 15.83814 | 152.65192 | 38998 ft | 527 kts | 75° |
| 2026-04-25 08:02 | 15.85678 | 152.72569 | 38995 ft | 527 kts | 75° |
| 2026-04-25 08:02 | 15.87533 | 152.79919 | 39002 ft | 527 kts | 75° |
| 2026-04-25 08:03 | 15.89403 | 152.87337 | 39003 ft | 531 kts | 75° |
| 2026-04-25 08:03 | 15.91257 | 152.94712 | 38992 ft | 530 kts | 75° |
| 2026-04-25 08:04 | 15.93117 | 153.02117 | 39005 ft | 530 kts | 75° |
| 2026-04-25 08:04 | 15.94981 | 153.09550 | 38998 ft | 530 kts | 75° |
| 2026-04-25 08:05 | 15.96841 | 153.16976 | 38996 ft | 530 kts | 75° |
| 2026-04-25 08:05 | 15.98695 | 153.24392 | 39007 ft | 530 kts | 75° |
| 2026-04-25 08:06 | 16.00545 | 153.31797 | 38997 ft | 535 kts | 76° |
| 2026-04-25 08:06 | 16.02411 | 153.39286 | 39001 ft | 535 kts | 76° |
| 2026-04-25 08:07 | 16.04274 | 153.46772 | 39003 ft | 534 kts | 76° |
| 2026-04-25 08:07 | 16.06130 | 153.54241 | 38993 ft | 534 kts | 76° |
| 2026-04-25 08:08 | 16.07976 | 153.61685 | 39006 ft | 534 kts | 76° |
| 2026-04-25 08:08 | 16.09829 | 153.69166 | 38999 ft | 534 kts | 76° |
| 2026-04-25 08:09 | 16.11681 | 153.76653 | 38995 ft | 534 kts | 76° |
| 2026-04-25 08:09 | 16.13531 | 153.84145 | 39007 ft | 535 kts | 76° |
| 2026-04-25 08:10 | 16.15378 | 153.91637 | 38993 ft | 534 kts | 76° |
| 2026-04-25 08:10 | 16.17219 | 153.99120 | 38985 ft | 533 kts | 76° |
| 2026-04-25 08:11 | 16.19051 | 154.06573 | 38999 ft | 535 kts | 76° |
| 2026-04-25 08:11 | 16.20891 | 154.14073 | 38989 ft | 534 kts | 76° |
| 2026-04-25 08:12 | 16.22728 | 154.21576 | 38991 ft | 535 kts | 76° |
| 2026-04-25 08:12 | 16.24565 | 154.29085 | 38997 ft | 536 kts | 76° |
| 2026-04-25 08:13 | 16.26398 | 154.36599 | 38975 ft | 528 kts | 76° |
| 2026-04-25 08:13 | 16.27291 | 154.40262 | 38961 ft | 516 kts | 75° |
| 2026-04-25 08:14 | 16.29063 | 154.47536 | 38991 ft | 522 kts | 75° |
| 2026-04-25 08:14 | 16.30854 | 154.54894 | 39001 ft | 531 kts | 76° |
| 2026-04-25 08:15 | 16.32662 | 154.62343 | 38984 ft | 530 kts | 76° |
| 2026-04-25 08:15 | 16.34464 | 154.69777 | 38995 ft | 529 kts | 76° |
| 2026-04-25 08:16 | 16.36265 | 154.77222 | 38996 ft | 530 kts | 76° |
| 2026-04-25 08:16 | 16.38058 | 154.84645 | 38986 ft | 533 kts | 76° |
| 2026-04-25 08:17 | 16.39870 | 154.92157 | 38999 ft | 533 kts | 76° |
| 2026-04-25 08:17 | 16.41662 | 154.99599 | 38988 ft | 532 kts | 76° |
| 2026-04-25 08:18 | 16.43461 | 155.07082 | 38993 ft | 532 kts | 76° |
| 2026-04-25 08:18 | 16.45257 | 155.14565 | 38998 ft | 533 kts | 76° |
| 2026-04-25 08:19 | 16.47043 | 155.22019 | 38986 ft | 531 kts | 76° |
| 2026-04-25 08:19 | 16.48846 | 155.29560 | 38998 ft | 532 kts | 76° |
| 2026-04-25 08:20 | 16.50625 | 155.37008 | 38993 ft | 532 kts | 76° |
| 2026-04-25 08:20 | 16.52410 | 155.44496 | 38987 ft | 531 kts | 76° |
| 2026-04-25 08:21 | 16.54191 | 155.51979 | 39000 ft | 532 kts | 76° |
| 2026-04-25 08:21 | 16.55962 | 155.59434 | 38988 ft | 532 kts | 76° |
| 2026-04-25 08:22 | 16.57738 | 155.66923 | 38993 ft | 532 kts | 76° |
| 2026-04-25 08:22 | 16.59515 | 155.74428 | 38998 ft | 532 kts | 76° |
| 2026-04-25 08:23 | 16.61284 | 155.81912 | 38985 ft | 531 kts | 76° |
| 2026-04-25 08:23 | 16.63054 | 155.89411 | 38997 ft | 532 kts | 76° |
| 2026-04-25 08:24 | 16.64822 | 155.96913 | 38993 ft | 532 kts | 76° |
| 2026-04-25 08:24 | 16.66572 | 156.04358 | 38987 ft | 532 kts | 76° |
| 2026-04-25 08:25 | 16.68334 | 156.11861 | 39000 ft | 532 kts | 76° |
| 2026-04-25 08:25 | 16.70090 | 156.19354 | 38988 ft | 532 kts | 76° |
| 2026-04-25 08:26 | 16.71846 | 156.26858 | 38993 ft | 532 kts | 76° |
| 2026-04-25 08:26 | 16.73599 | 156.34364 | 38998 ft | 532 kts | 76° |
| 2026-04-25 08:27 | 16.75349 | 156.41870 | 38987 ft | 531 kts | 76° |
| 2026-04-25 08:27 | 16.77075 | 156.49290 | 38990 ft | 519 kts | 76° |
| 2026-04-25 08:28 | 16.78768 | 156.56572 | 39002 ft | 522 kts | 76° |
| 2026-04-25 08:28 | 16.80449 | 156.63810 | 38860 ft | 499 kts | 76° |
| 2026-04-25 08:29 | 16.82057 | 156.70766 | 38970 ft | 495 kts | 76° |
| 2026-04-25 08:29 | 16.83689 | 156.77819 | 38999 ft | 504 kts | 76° |
| 2026-04-25 08:30 | 16.85352 | 156.85019 | 38997 ft | 516 kts | 76° |
| 2026-04-25 08:30 | 16.87034 | 156.92319 | 38988 ft | 523 kts | 76° |
| 2026-04-25 08:31 | 16.88736 | 156.99721 | 38991 ft | 523 kts | 76° |
| 2026-04-25 08:31 | 16.90436 | 157.07124 | 38998 ft | 523 kts | 76° |
| 2026-04-25 08:32 | 16.92130 | 157.14514 | 38986 ft | 522 kts | 76° |
| 2026-04-25 08:32 | 16.93822 | 157.21909 | 38995 ft | 523 kts | 76° |
| 2026-04-25 08:33 | 16.95505 | 157.29273 | 38995 ft | 524 kts | 76° |
| 2026-04-25 08:33 | 16.97190 | 157.36663 | 38985 ft | 522 kts | 76° |
| 2026-04-25 08:34 | 16.98874 | 157.44062 | 38999 ft | 523 kts | 76° |
| 2026-04-25 08:34 | 17.00547 | 157.51423 | 38990 ft | 523 kts | 76° |
| 2026-04-25 08:35 | 17.02222 | 157.58808 | 38990 ft | 523 kts | 76° |
| 2026-04-25 08:35 | 17.03902 | 157.66227 | 39000 ft | 524 kts | 76° |
| 2026-04-25 08:36 | 17.05575 | 157.73629 | 38986 ft | 523 kts | 76° |
| 2026-04-25 08:36 | 17.07246 | 157.81034 | 38996 ft | 523 kts | 76° |
| 2026-04-25 08:37 | 17.08905 | 157.88405 | 38994 ft | 523 kts | 76° |
| 2026-04-25 08:37 | 17.10568 | 157.95806 | 38985 ft | 523 kts | 76° |
| 2026-04-25 08:38 | 17.12231 | 158.03216 | 39000 ft | 523 kts | 76° |
| 2026-04-25 08:38 | 17.13891 | 158.10628 | 38989 ft | 523 kts | 76° |
| 2026-04-25 08:39 | 17.15537 | 158.17991 | 38991 ft | 524 kts | 76° |
| 2026-04-25 08:39 | 17.17203 | 158.25457 | 38999 ft | 524 kts | 76° |
| 2026-04-25 08:40 | 17.18842 | 158.32817 | 38986 ft | 522 kts | 76° |
| 2026-04-25 08:40 | 17.20491 | 158.40232 | 38996 ft | 523 kts | 76° |
| 2026-04-25 08:41 | 17.22137 | 158.47648 | 38995 ft | 523 kts | 76° |
| 2026-04-25 08:41 | 17.23768 | 158.55013 | 38982 ft | 511 kts | 76° |
| 2026-04-25 08:42 | 17.25357 | 158.62202 | 38993 ft | 512 kts | 76° |
| 2026-04-25 08:42 | 17.26966 | 158.69483 | 38999 ft | 515 kts | 76° |
| 2026-04-25 08:43 | 17.28573 | 158.76778 | 38985 ft | 513 kts | 76° |
| 2026-04-25 08:43 | 17.30148 | 158.83930 | 39002 ft | 490 kts | 77° |
| 2026-04-25 08:44 | 17.31652 | 158.90795 | 38957 ft | 486 kts | 76° |
| 2026-04-25 08:44 | 17.32918 | 158.96571 | 38991 ft | 494 kts | 76° |
| 2026-04-25 08:45 | 17.34473 | 159.03670 | 39002 ft | 505 kts | 76° |
| 2026-04-25 08:45 | 17.36057 | 159.10917 | 38990 ft | 515 kts | 76° |
| 2026-04-25 08:46 | 17.37651 | 159.18230 | 38987 ft | 514 kts | 76° |
| 2026-04-25 08:46 | 17.39233 | 159.25498 | 38998 ft | 514 kts | 76° |
| 2026-04-25 08:47 | 17.40815 | 159.32779 | 38991 ft | 514 kts | 77° |
| 2026-04-25 08:47 | 17.42402 | 159.40097 | 38989 ft | 514 kts | 77° |
| 2026-04-25 08:48 | 17.43972 | 159.47354 | 38997 ft | 515 kts | 76° |
| 2026-04-25 08:48 | 17.45571 | 159.54767 | 38994 ft | 527 kts | 76° |
| 2026-04-25 08:49 | 17.47204 | 159.62325 | 39004 ft | 534 kts | 76° |
| 2026-04-25 08:49 | 17.48843 | 159.69935 | 38984 ft | 534 kts | 76° |
| 2026-04-25 08:50 | 17.50465 | 159.77490 | 38995 ft | 534 kts | 76° |
| 2026-04-25 08:50 | 17.52096 | 159.85100 | 38997 ft | 537 kts | 76° |
| 2026-04-25 08:51 | 17.53729 | 159.92730 | 38984 ft | 535 kts | 76° |
| 2026-04-25 08:51 | 17.55348 | 160.00312 | 38997 ft | 536 kts | 76° |
| 2026-04-25 08:52 | 17.56974 | 160.07936 | 38993 ft | 536 kts | 76° |
| 2026-04-25 08:52 | 17.58597 | 160.15568 | 38987 ft | 535 kts | 76° |
| 2026-04-25 08:53 | 17.60209 | 160.23161 | 39000 ft | 536 kts | 76° |
| 2026-04-25 08:53 | 17.61825 | 160.30791 | 38988 ft | 536 kts | 76° |
| 2026-04-25 08:54 | 17.63438 | 160.38425 | 38992 ft | 536 kts | 75° |
| 2026-04-25 08:54 | 17.65055 | 160.46081 | 38998 ft | 536 kts | 75° |
| 2026-04-25 08:55 | 17.66653 | 160.53669 | 38985 ft | 535 kts | 76° |
| 2026-04-25 08:55 | 17.68256 | 160.61298 | 38997 ft | 536 kts | 76° |
| 2026-04-25 08:56 | 17.69864 | 160.68960 | 38994 ft | 536 kts | 76° |
| 2026-04-25 08:56 | 17.71451 | 160.76546 | 38986 ft | 535 kts | 76° |
| 2026-04-25 08:57 | 17.73048 | 160.84187 | 39000 ft | 537 kts | 76° |
| 2026-04-25 08:57 | 17.74645 | 160.91848 | 38989 ft | 536 kts | 76° |
| 2026-04-25 08:58 | 17.76236 | 160.99495 | 38992 ft | 536 kts | 76° |
| 2026-04-25 08:58 | 17.77811 | 161.07032 | 38894 ft | 515 kts | 77° |
| 2026-04-25 08:58 | 17.78560 | 161.10659 | 38474 ft | 502 kts | 77° |
| 2026-04-25 08:59 | 17.79278 | 161.14180 | 38654 ft | 481 kts | 76° |
| 2026-04-25 08:59 | 17.79981 | 161.17602 | 38831 ft | 479 kts | 75° |
| 2026-04-25 08:59 | 17.80690 | 161.21021 | 38968 ft | 482 kts | 75° |
| 2026-04-25 09:00 | 17.82131 | 161.27965 | 39002 ft | 491 kts | 75° |
| 2026-04-25 09:00 | 17.83596 | 161.35064 | 38997 ft | 502 kts | 75° |
| 2026-04-25 09:01 | 17.85088 | 161.42312 | 38990 ft | 513 kts | 76° |
| 2026-04-25 09:01 | 17.86598 | 161.49669 | 38994 ft | 525 kts | 76° |
| 2026-04-25 09:02 | 17.88151 | 161.57249 | 38994 ft | 533 kts | 76° |
| 2026-04-25 09:02 | 17.89704 | 161.64857 | 38983 ft | 532 kts | 76° |
| 2026-04-25 09:03 | 17.91252 | 161.72452 | 38997 ft | 532 kts | 76° |
| 2026-04-25 09:03 | 17.92793 | 161.80020 | 38994 ft | 531 kts | 76° |
| 2026-04-25 09:04 | 17.94335 | 161.87614 | 38987 ft | 530 kts | 76° |
| 2026-04-25 09:04 | 17.95875 | 161.95208 | 39000 ft | 532 kts | 76° |
| 2026-04-25 09:05 | 17.97412 | 162.02804 | 38988 ft | 531 kts | 76° |
| 2026-04-25 09:05 | 17.98936 | 162.10354 | 38992 ft | 531 kts | 76° |
| 2026-04-25 09:06 | 18.00469 | 162.17961 | 38999 ft | 532 kts | 76° |
| 2026-04-25 09:06 | 18.01998 | 162.25568 | 38986 ft | 531 kts | 76° |
| 2026-04-25 09:07 | 18.03521 | 162.33162 | 38997 ft | 532 kts | 76° |
| 2026-04-25 09:07 | 18.05045 | 162.40769 | 38994 ft | 532 kts | 76° |
| 2026-04-25 09:08 | 18.06555 | 162.48333 | 38987 ft | 531 kts | 76° |
| 2026-04-25 09:08 | 18.08071 | 162.55937 | 39000 ft | 532 kts | 76° |
| 2026-04-25 09:09 | 18.09589 | 162.63566 | 38990 ft | 531 kts | 76° |
| 2026-04-25 09:09 | 18.11094 | 162.71152 | 38990 ft | 531 kts | 76° |
| 2026-04-25 09:10 | 18.12603 | 162.78772 | 38999 ft | 532 kts | 76° |
| 2026-04-25 09:10 | 18.14110 | 162.86400 | 38986 ft | 533 kts | 76° |
| 2026-04-25 09:11 | 18.16362 | 162.97822 | 38999 ft | 533 kts | 76° |
| 2026-04-25 09:11 | 18.17864 | 163.05463 | 38988 ft | 532 kts | 76° |
| 2026-04-25 09:12 | 18.19363 | 163.13105 | 38995 ft | 533 kts | 76° |
| 2026-04-25 09:12 | 18.20860 | 163.20752 | 38997 ft | 533 kts | 76° |
| 2026-04-25 09:13 | 18.22355 | 163.28379 | 38985 ft | 528 kts | 78° |
| 2026-04-25 09:13 | 18.23816 | 163.35919 | 38980 ft | 528 kts | 76° |
| 2026-04-25 09:14 | 18.25297 | 163.43523 | 39002 ft | 534 kts | 76° |
| 2026-04-25 09:14 | 18.26783 | 163.51181 | 38986 ft | 533 kts | 76° |
| 2026-04-25 09:15 | 18.28258 | 163.58807 | 38993 ft | 532 kts | 76° |
| 2026-04-25 09:15 | 18.29737 | 163.66461 | 38998 ft | 533 kts | 76° |
| 2026-04-25 09:16 | 18.31208 | 163.74095 | 38985 ft | 533 kts | 76° |
| 2026-04-25 09:16 | 18.32680 | 163.81754 | 38998 ft | 533 kts | 76° |
| 2026-04-25 09:17 | 18.34872 | 163.93187 | 38986 ft | 533 kts | 76° |
| 2026-04-25 09:18 | 18.36336 | 164.00843 | 38996 ft | 533 kts | 76° |
| 2026-04-25 09:18 | 18.37794 | 164.08486 | 38996 ft | 533 kts | 76° |
| 2026-04-25 09:19 | 18.39246 | 164.16113 | 38986 ft | 533 kts | 76° |
| 2026-04-25 09:19 | 18.40701 | 164.23778 | 38999 ft | 533 kts | 76° |
| 2026-04-25 09:20 | 18.42152 | 164.31434 | 38990 ft | 533 kts | 76° |
| 2026-04-25 09:20 | 18.43600 | 164.39097 | 38990 ft | 533 kts | 76° |
| 2026-04-25 09:21 | 18.45036 | 164.46709 | 39000 ft | 533 kts | 76° |
| 2026-04-25 09:21 | 18.46480 | 164.54382 | 38987 ft | 533 kts | 76° |
| 2026-04-25 09:22 | 18.47918 | 164.62045 | 38995 ft | 533 kts | 76° |
| 2026-04-25 09:22 | 18.49356 | 164.69719 | 38996 ft | 533 kts | 76° |
| 2026-04-25 09:23 | 18.50785 | 164.77370 | 38986 ft | 533 kts | 76° |
| 2026-04-25 09:23 | 18.52216 | 164.85047 | 38999 ft | 533 kts | 76° |
| 2026-04-25 09:24 | 18.53643 | 164.92716 | 38991 ft | 533 kts | 76° |
| 2026-04-25 09:24 | 18.55066 | 165.00386 | 38989 ft | 533 kts | 76° |
| 2026-04-25 09:25 | 18.56483 | 165.08039 | 39000 ft | 533 kts | 76° |
| 2026-04-25 09:25 | 18.57904 | 165.15732 | 38987 ft | 533 kts | 76° |
| 2026-04-25 09:26 | 18.59081 | 165.22117 | 38991 ft | 533 kts | 76° |
| 2026-04-25 09:26 | 18.60491 | 165.29783 | 38999 ft | 534 kts | 76° |
| 2026-04-25 09:27 | 18.62128 | 165.38708 | 39034 ft | 531 kts | 76° |
| 2026-04-25 09:27 | 18.62599 | 165.41284 | 39164 ft | 530 kts | 76° |
| 2026-04-25 09:27 | 18.63302 | 165.45125 | 39233 ft | 534 kts | 76° |
| 2026-04-25 09:28 | 18.64700 | 165.52779 | 39249 ft | 534 kts | 76° |
| 2026-04-25 09:28 | 18.66093 | 165.60430 | 39257 ft | 530 kts | 77° |
| 2026-04-25 09:29 | 18.67464 | 165.67986 | 39250 ft | 522 kts | 77° |
| 2026-04-25 09:29 | 18.68846 | 165.75598 | 39271 ft | 533 kts | 77° |
| 2026-04-25 09:30 | 18.70239 | 165.83291 | 39254 ft | 534 kts | 77° |
| 2026-04-25 09:30 | 18.71627 | 165.90993 | 39256 ft | 532 kts | 77° |
| 2026-04-25 09:31 | 18.73009 | 165.98670 | 39265 ft | 533 kts | 77° |
| 2026-04-25 09:31 | 18.74384 | 166.06325 | 39252 ft | 533 kts | 77° |
| 2026-04-25 09:32 | 18.75760 | 166.14008 | 39260 ft | 533 kts | 77° |
| 2026-04-25 09:32 | 18.77136 | 166.21709 | 39262 ft | 534 kts | 77° |
| 2026-04-25 09:33 | 18.78510 | 166.29416 | 39100 ft | 534 kts | 77° |
| 2026-04-25 09:33 | 18.79874 | 166.37095 | 39087 ft | 531 kts | 77° |
| 2026-04-25 09:34 | 18.81229 | 166.44729 | 39079 ft | 533 kts | 77° |
| 2026-04-25 09:34 | 18.82594 | 166.52444 | 39081 ft | 533 kts | 77° |
| 2026-04-25 09:35 | 18.83954 | 166.60149 | 39087 ft | 533 kts | 77° |
| 2026-04-25 09:35 | 18.85298 | 166.67799 | 39075 ft | 533 kts | 77° |
| 2026-04-25 09:36 | 18.86637 | 166.75504 | 39085 ft | 533 kts | 77° |
| 2026-04-25 09:36 | 18.87967 | 166.83218 | 39083 ft | 533 kts | 77° |
| 2026-04-25 09:37 | 18.89292 | 166.90928 | 39075 ft | 533 kts | 77° |
| 2026-04-25 09:37 | 18.90612 | 166.98628 | 39088 ft | 533 kts | 77° |
| 2026-04-25 09:38 | 18.91935 | 167.06359 | 39078 ft | 533 kts | 77° |
| 2026-04-25 09:38 | 18.93238 | 167.14004 | 39080 ft | 533 kts | 77° |
| 2026-04-25 09:39 | 18.94554 | 167.21738 | 39088 ft | 533 kts | 77° |
| 2026-04-25 09:39 | 18.95856 | 167.29405 | 39075 ft | 533 kts | 77° |
| 2026-04-25 09:40 | 18.97813 | 167.40979 | 39089 ft | 533 kts | 77° |
| 2026-04-25 09:40 | 18.99122 | 167.48741 | 39076 ft | 533 kts | 77° |
| 2026-04-25 09:41 | 19.00413 | 167.56417 | 39082 ft | 533 kts | 77° |
| 2026-04-25 09:41 | 19.01709 | 167.64144 | 39086 ft | 534 kts | 77° |
| 2026-04-25 09:42 | 19.02999 | 167.71855 | 39074 ft | 533 kts | 77° |
| 2026-04-25 09:42 | 19.04286 | 167.79572 | 39087 ft | 533 kts | 77° |
| 2026-04-25 09:43 | 19.05573 | 167.87304 | 39083 ft | 532 kts | 78° |
| 2026-04-25 09:43 | 19.06199 | 167.91056 | 39083 ft | 517 kts | 78° |
| 2026-04-25 09:43 | 19.06810 | 167.94755 | 39068 ft | 505 kts | 78° |
| 2026-04-25 09:44 | 19.08014 | 168.02063 | 39068 ft | 508 kts | 77° |
| 2026-04-25 09:44 | 19.09249 | 168.09510 | 39092 ft | 520 kts | 77° |
| 2026-04-25 09:45 | 19.10505 | 168.17111 | 39082 ft | 526 kts | 78° |
| 2026-04-25 09:45 | 19.11748 | 168.24694 | 39074 ft | 526 kts | 77° |
| 2026-04-25 09:46 | 19.12996 | 168.32316 | 39087 ft | 526 kts | 78° |
| 2026-04-25 09:46 | 19.14242 | 168.39946 | 39079 ft | 525 kts | 78° |
| 2026-04-25 09:47 | 19.15484 | 168.47573 | 39078 ft | 525 kts | 78° |
| 2026-04-25 09:47 | 19.16725 | 168.55207 | 39088 ft | 526 kts | 78° |
| 2026-04-25 09:48 | 19.17954 | 168.62787 | 39074 ft | 525 kts | 78° |
| 2026-04-25 09:48 | 19.19184 | 168.70402 | 39084 ft | 525 kts | 78° |
| 2026-04-25 09:49 | 19.20415 | 168.78028 | 39085 ft | 526 kts | 78° |
| 2026-04-25 09:49 | 19.21640 | 168.85640 | 39073 ft | 524 kts | 78° |
| 2026-04-25 09:50 | 19.22854 | 168.93221 | 39087 ft | 525 kts | 78° |
| 2026-04-25 09:50 | 19.24072 | 169.00843 | 39081 ft | 525 kts | 78° |
| 2026-04-25 09:51 | 19.25286 | 169.08462 | 39077 ft | 524 kts | 78° |
| 2026-04-25 09:51 | 19.26493 | 169.16069 | 39087 ft | 519 kts | 78° |
| 2026-04-25 09:52 | 19.27685 | 169.23582 | 39074 ft | 517 kts | 78° |
| 2026-04-25 09:52 | 19.28876 | 169.31090 | 39088 ft | 521 kts | 78° |
| 2026-04-25 09:53 | 19.30070 | 169.38655 | 39079 ft | 521 kts | 78° |
| 2026-04-25 09:53 | 19.31258 | 169.46218 | 39078 ft | 520 kts | 78° |
| 2026-04-25 09:54 | 19.32447 | 169.53798 | 39089 ft | 521 kts | 78° |
| 2026-04-25 09:54 | 19.33632 | 169.61373 | 39076 ft | 521 kts | 78° |
| 2026-04-25 09:55 | 19.34812 | 169.68937 | 39083 ft | 521 kts | 78° |
| 2026-04-25 09:55 | 19.35984 | 169.76476 | 39085 ft | 521 kts | 78° |
| 2026-04-25 09:56 | 19.37158 | 169.84043 | 39074 ft | 520 kts | 78° |
| 2026-04-25 09:56 | 19.38329 | 169.91616 | 39087 ft | 521 kts | 78° |
| 2026-04-25 09:57 | 19.39498 | 169.99192 | 39081 ft | 521 kts | 78° |
| 2026-04-25 09:57 | 19.40664 | 170.06773 | 39076 ft | 521 kts | 78° |
| 2026-04-25 09:58 | 19.41820 | 170.14307 | 39094 ft | 520 kts | 79° |
| 2026-04-25 09:58 | 19.42963 | 170.21783 | 39072 ft | 506 kts | 79° |
| 2026-04-25 09:59 | 19.44083 | 170.29146 | 39073 ft | 509 kts | 78° |
| 2026-04-25 09:59 | 19.45226 | 170.36641 | 39093 ft | 521 kts | 78° |
| 2026-04-25 10:00 | 19.46378 | 170.44232 | 39077 ft | 521 kts | 79° |
| 2026-04-25 10:00 | 19.47524 | 170.51818 | 39079 ft | 520 kts | 78° |
| 2026-04-25 10:01 | 19.48662 | 170.59366 | 39088 ft | 522 kts | 79° |
| 2026-04-25 10:01 | 19.49804 | 170.66965 | 39075 ft | 521 kts | 79° |
| 2026-04-25 10:02 | 19.50942 | 170.74558 | 39084 ft | 521 kts | 79° |
| 2026-04-25 10:02 | 19.52077 | 170.82149 | 39085 ft | 521 kts | 79° |
| 2026-04-25 10:03 | 19.53205 | 170.89723 | 39074 ft | 521 kts | 79° |
| 2026-04-25 10:03 | 19.54328 | 170.97282 | 39088 ft | 521 kts | 79° |
| 2026-04-25 10:04 | 19.55454 | 171.04876 | 39078 ft | 521 kts | 79° |
| 2026-04-25 10:04 | 19.56576 | 171.12477 | 39079 ft | 521 kts | 79° |
| 2026-04-25 10:05 | 19.57695 | 171.20074 | 39088 ft | 522 kts | 79° |
| 2026-04-25 10:05 | 19.58812 | 171.27681 | 39075 ft | 521 kts | 79° |
| 2026-04-25 10:06 | 19.59915 | 171.35217 | 39084 ft | 521 kts | 79° |
| 2026-04-25 10:06 | 19.61025 | 171.42821 | 39084 ft | 522 kts | 79° |
| 2026-04-25 10:07 | 19.62133 | 171.50432 | 39074 ft | 520 kts | 79° |
| 2026-04-25 10:07 | 19.63236 | 171.58037 | 39088 ft | 521 kts | 79° |
| 2026-04-25 10:08 | 19.64336 | 171.65640 | 39079 ft | 521 kts | 79° |
| 2026-04-25 10:08 | 19.65248 | 171.71966 | 39075 ft | 520 kts | 79° |
| 2026-04-25 10:09 | 19.66517 | 171.80794 | 39089 ft | 522 kts | 79° |
| 2026-04-25 10:09 | 19.67428 | 171.87141 | 39078 ft | 521 kts | 79° |
| 2026-04-25 10:10 | 19.68513 | 171.94739 | 39080 ft | 521 kts | 79° |
| 2026-04-25 10:10 | 19.69599 | 172.02357 | 39087 ft | 522 kts | 79° |
| 2026-04-25 10:11 | 19.70680 | 172.09963 | 39075 ft | 521 kts | 79° |
| 2026-04-25 10:11 | 19.71758 | 172.17578 | 39085 ft | 521 kts | 79° |
| 2026-04-25 10:12 | 19.72834 | 172.25201 | 39084 ft | 522 kts | 79° |
| 2026-04-25 10:13 | 19.74417 | 172.36469 | 39072 ft | 508 kts | 79° |
| 2026-04-25 10:13 | 19.75460 | 172.43900 | 39090 ft | 508 kts | 79° |
| 2026-04-25 10:14 | 19.76502 | 172.51362 | 39080 ft | 512 kts | 79° |
| 2026-04-25 10:14 | 19.77543 | 172.58840 | 39078 ft | 512 kts | 79° |
| 2026-04-25 10:15 | 19.78577 | 172.66291 | 39088 ft | 512 kts | 79° |
| 2026-04-25 10:15 | 19.79613 | 172.73776 | 39075 ft | 512 kts | 79° |
| 2026-04-25 10:16 | 19.80646 | 172.81266 | 39083 ft | 512 kts | 79° |
| 2026-04-25 10:16 | 19.81678 | 172.88767 | 39085 ft | 513 kts | 79° |
| 2026-04-25 10:17 | 19.82698 | 172.96208 | 39075 ft | 512 kts | 79° |
| 2026-04-25 10:17 | 19.83720 | 173.03693 | 39087 ft | 512 kts | 79° |
| 2026-04-25 10:18 | 19.84741 | 173.11179 | 39080 ft | 512 kts | 79° |
| 2026-04-25 10:18 | 19.85757 | 173.18675 | 39078 ft | 512 kts | 79° |
| 2026-04-25 10:19 | 19.86772 | 173.26173 | 39088 ft | 513 kts | 79° |
| 2026-04-25 10:19 | 19.87764 | 173.33660 | 39076 ft | 512 kts | 80° |
| 2026-04-25 10:20 | 19.88733 | 173.41158 | 39082 ft | 512 kts | 80° |
| 2026-04-25 10:20 | 19.89698 | 173.48671 | 39086 ft | 513 kts | 80° |
| 2026-04-25 10:21 | 19.90657 | 173.56179 | 39074 ft | 512 kts | 80° |
| 2026-04-25 10:21 | 19.91612 | 173.63680 | 39087 ft | 512 kts | 80° |
| 2026-04-25 10:22 | 19.92560 | 173.71142 | 39081 ft | 512 kts | 80° |
| 2026-04-25 10:22 | 19.93507 | 173.78634 | 39076 ft | 512 kts | 80° |
| 2026-04-25 10:23 | 19.94454 | 173.86143 | 39089 ft | 513 kts | 80° |
| 2026-04-25 10:23 | 19.95399 | 173.93658 | 39076 ft | 512 kts | 80° |
| 2026-04-25 10:24 | 19.96339 | 174.01176 | 39079 ft | 514 kts | 80° |
| 2026-04-25 10:24 | 19.97294 | 174.08801 | 39091 ft | 527 kts | 81° |
| 2026-04-25 10:25 | 19.98263 | 174.16575 | 39082 ft | 532 kts | 81° |
| 2026-04-25 10:25 | 19.99219 | 174.24325 | 39074 ft | 530 kts | 81° |
| 2026-04-25 10:26 | 20.00182 | 174.32125 | 39088 ft | 533 kts | 81° |
| 2026-04-25 10:26 | 20.01143 | 174.39945 | 39079 ft | 532 kts | 81° |
| 2026-04-25 10:27 | 20.02098 | 174.47751 | 39078 ft | 532 kts | 81° |
| 2026-04-25 10:27 | 20.03047 | 174.55520 | 39089 ft | 533 kts | 81° |
| 2026-04-25 10:28 | 20.03998 | 174.63339 | 39075 ft | 532 kts | 81° |
| 2026-04-25 10:28 | 20.04934 | 174.71092 | 39089 ft | 520 kts | 81° |
| 2026-04-25 10:28 | 20.05388 | 174.74861 | 39081 ft | 508 kts | 81° |
| 2026-04-25 10:29 | 20.05840 | 174.78595 | 39054 ft | 510 kts | 81° |
| 2026-04-25 10:29 | 20.06755 | 174.86168 | 39087 ft | 521 kts | 82° |
| 2026-04-25 10:30 | 20.07684 | 174.93917 | 39088 ft | 534 kts | 82° |
| 2026-04-25 10:30 | 20.08618 | 175.01741 | 39075 ft | 536 kts | 82° |
| 2026-04-25 10:31 | 20.09553 | 175.09614 | 39081 ft | 536 kts | 82° |
| 2026-04-25 10:31 | 20.10485 | 175.17487 | 39086 ft | 536 kts | 82° |
| 2026-04-25 10:32 | 20.11414 | 175.25358 | 39074 ft | 535 kts | 82° |
| 2026-04-25 10:32 | 20.12336 | 175.33194 | 39087 ft | 538 kts | 82° |
| 2026-04-25 10:33 | 20.13260 | 175.41093 | 39081 ft | 537 kts | 82° |
| 2026-04-25 10:33 | 20.14180 | 175.48982 | 39076 ft | 536 kts | 82° |
| 2026-04-25 10:34 | 20.15098 | 175.56876 | 39089 ft | 538 kts | 82° |
| 2026-04-25 10:34 | 20.16005 | 175.64718 | 39076 ft | 537 kts | 82° |
| 2026-04-25 10:35 | 20.16914 | 175.72608 | 39081 ft | 536 kts | 82° |
| 2026-04-25 10:35 | 20.17820 | 175.80497 | 39086 ft | 538 kts | 82° |
| 2026-04-25 10:36 | 20.18726 | 175.88411 | 39074 ft | 537 kts | 82° |
| 2026-04-25 10:36 | 20.19626 | 175.96315 | 39086 ft | 538 kts | 82° |
| 2026-04-25 10:37 | 20.20523 | 176.04230 | 39082 ft | 538 kts | 82° |
| 2026-04-25 10:37 | 20.21416 | 176.12131 | 39075 ft | 537 kts | 82° |
| 2026-04-25 10:38 | 20.22301 | 176.20001 | 39089 ft | 538 kts | 82° |
| 2026-04-25 10:38 | 20.23189 | 176.27923 | 39077 ft | 538 kts | 82° |
| 2026-04-25 10:39 | 20.24069 | 176.35821 | 39079 ft | 536 kts | 82° |
| 2026-04-25 10:39 | 20.24943 | 176.43679 | 39088 ft | 537 kts | 82° |
| 2026-04-25 10:40 | 20.25817 | 176.51577 | 39075 ft | 534 kts | 82° |
| 2026-04-25 10:40 | 20.26680 | 176.59413 | 39081 ft | 533 kts | 82° |
| 2026-04-25 10:41 | 20.27543 | 176.67267 | 39087 ft | 535 kts | 82° |
| 2026-04-25 10:41 | 20.28403 | 176.75138 | 39074 ft | 534 kts | 82° |
| 2026-04-25 10:42 | 20.29253 | 176.82947 | 39084 ft | 536 kts | 82° |
| 2026-04-25 10:42 | 20.30113 | 176.90875 | 39085 ft | 538 kts | 82° |
| 2026-04-25 10:43 | 20.30966 | 176.98784 | 39074 ft | 536 kts | 82° |
| 2026-04-25 10:43 | 20.31802 | 177.06601 | 39092 ft | 525 kts | 82° |
| 2026-04-25 10:43 | 20.32213 | 177.10456 | 39087 ft | 510 kts | 82° |
| 2026-04-25 10:44 | 20.32612 | 177.14189 | 39057 ft | 502 kts | 82° |
| 2026-04-25 10:44 | 20.33409 | 177.21604 | 39073 ft | 513 kts | 82° |
| 2026-04-25 10:45 | 20.34221 | 177.29245 | 39093 ft | 524 kts | 82° |
| 2026-04-25 10:45 | 20.35046 | 177.37061 | 39081 ft | 534 kts | 82° |
| 2026-04-25 10:46 | 20.35876 | 177.44951 | 39075 ft | 535 kts | 82° |
| 2026-04-25 10:46 | 20.36700 | 177.52825 | 39085 ft | 535 kts | 82° |
| 2026-04-25 10:47 | 20.37524 | 177.60722 | 39081 ft | 535 kts | 82° |
| 2026-04-25 10:47 | 20.38342 | 177.68599 | 39076 ft | 535 kts | 82° |
| 2026-04-25 10:48 | 20.39156 | 177.76476 | 39088 ft | 535 kts | 83° |
| 2026-04-25 10:48 | 20.39970 | 177.84381 | 39077 ft | 535 kts | 83° |
| 2026-04-25 10:49 | 20.40779 | 177.92285 | 39082 ft | 536 kts | 82° |
| 2026-04-25 10:49 | 20.41586 | 178.00192 | 39086 ft | 536 kts | 83° |
| 2026-04-25 10:50 | 20.42383 | 178.08038 | 39074 ft | 535 kts | 83° |
| 2026-04-25 10:50 | 20.43183 | 178.15949 | 39087 ft | 537 kts | 83° |
| 2026-04-25 10:51 | 20.43844 | 178.22518 | 39084 ft | 536 kts | 83° |
| 2026-04-25 10:51 | 20.44636 | 178.30422 | 39075 ft | 535 kts | 83° |
| 2026-04-25 10:52 | 20.45549 | 178.39581 | 39087 ft | 533 kts | 82° |
| 2026-04-25 10:52 | 20.46203 | 178.46165 | 39077 ft | 533 kts | 83° |
| 2026-04-25 10:53 | 20.46977 | 178.53999 | 39081 ft | 534 kts | 83° |
| 2026-04-25 10:53 | 20.47752 | 178.61872 | 39086 ft | 534 kts | 83° |
| 2026-04-25 10:54 | 20.48524 | 178.69754 | 39074 ft | 533 kts | 83° |
| 2026-04-25 10:54 | 20.49291 | 178.77626 | 39086 ft | 534 kts | 83° |
| 2026-04-25 10:55 | 20.50051 | 178.85462 | 39081 ft | 534 kts | 83° |
| 2026-04-25 10:55 | 20.50812 | 178.93337 | 39076 ft | 533 kts | 83° |
| 2026-04-25 10:56 | 20.51569 | 179.01221 | 39089 ft | 534 kts | 83° |
| 2026-04-25 10:56 | 20.52325 | 179.09117 | 39077 ft | 533 kts | 83° |
| 2026-04-25 10:57 | 20.53073 | 179.16988 | 39081 ft | 533 kts | 83° |
| 2026-04-25 10:57 | 20.53816 | 179.24820 | 39087 ft | 534 kts | 83° |
| 2026-04-25 10:58 | 20.54559 | 179.32699 | 39075 ft | 533 kts | 83° |
| 2026-04-25 10:58 | 20.55293 | 179.40551 | 39089 ft | 528 kts | 83° |
| 2026-04-25 10:58 | 20.55651 | 179.44406 | 39092 ft | 514 kts | 83° |
| 2026-04-25 10:59 | 20.56000 | 179.48163 | 39072 ft | 504 kts | 83° |
| 2026-04-25 10:59 | 20.56702 | 179.55671 | 39073 ft | 513 kts | 83° |
| 2026-04-25 11:00 | 20.57413 | 179.63338 | 39092 ft | 525 kts | 83° |
| 2026-04-25 11:00 | 20.58132 | 179.71144 | 39081 ft | 534 kts | 83° |
| 2026-04-25 11:01 | 20.58854 | 179.79050 | 39076 ft | 534 kts | 83° |
| 2026-04-25 11:01 | 20.59570 | 179.86925 | 39086 ft | 533 kts | 83° |
| 2026-04-25 11:02 | 20.60285 | 179.94820 | 39080 ft | 533 kts | 83° |
| 2026-04-25 11:02 | 20.60973 | -179.97305 | 39077 ft | 533 kts | 83° |
| 2026-04-25 11:03 | 20.61642 | -179.89409 | 39088 ft | 533 kts | 84° |
| 2026-04-25 11:03 | 20.62296 | -179.81572 | 39076 ft | 533 kts | 84° |
| 2026-04-25 11:04 | 20.62948 | -179.73698 | 39083 ft | 533 kts | 84° |
| 2026-04-25 11:04 | 20.63599 | -179.65800 | 39085 ft | 534 kts | 84° |
| 2026-04-25 11:05 | 20.64247 | -179.57891 | 39074 ft | 532 kts | 84° |
| 2026-04-25 11:05 | 20.64886 | -179.50054 | 39087 ft | 533 kts | 84° |
| 2026-04-25 11:06 | 20.65527 | -179.42147 | 39080 ft | 533 kts | 84° |
| 2026-04-25 11:06 | 20.66163 | -179.34264 | 39078 ft | 533 kts | 84° |
| 2026-04-25 11:07 | 20.66792 | -179.26406 | 39088 ft | 533 kts | 84° |
| 2026-04-25 11:07 | 20.67422 | -179.18509 | 39075 ft | 533 kts | 84° |
| 2026-04-25 11:08 | 20.68047 | -179.10613 | 39083 ft | 533 kts | 84° |
| 2026-04-25 11:08 | 20.68670 | -179.02711 | 39085 ft | 533 kts | 84° |
| 2026-04-25 11:09 | 20.69286 | -178.94838 | 39074 ft | 532 kts | 84° |
| 2026-04-25 11:09 | 20.69902 | -178.86929 | 39088 ft | 534 kts | 84° |
| 2026-04-25 11:10 | 20.70514 | -178.79020 | 39080 ft | 533 kts | 84° |
| 2026-04-25 11:10 | 20.71116 | -178.71179 | 39078 ft | 533 kts | 84° |
| 2026-04-25 11:11 | 20.71720 | -178.63286 | 39088 ft | 534 kts | 84° |
| 2026-04-25 11:11 | 20.72321 | -178.55374 | 39075 ft | 533 kts | 84° |
| 2026-04-25 11:12 | 20.72917 | -178.47486 | 39084 ft | 533 kts | 84° |
| 2026-04-25 11:12 | 20.73511 | -178.39573 | 39085 ft | 533 kts | 84° |
| 2026-04-25 11:13 | 20.74100 | -178.31676 | 39074 ft | 532 kts | 84° |
| 2026-04-25 11:13 | 20.74683 | -178.23792 | 39091 ft | 529 kts | 84° |
| 2026-04-25 11:14 | 20.75250 | -178.16106 | 39074 ft | 524 kts | 84° |
| 2026-04-25 11:14 | 20.75828 | -178.08236 | 39093 ft | 534 kts | 84° |
| 2026-04-25 11:15 | 20.76404 | -178.00316 | 39075 ft | 533 kts | 84° |
| 2026-04-25 11:15 | 20.76975 | -177.92415 | 39082 ft | 533 kts | 84° |
| 2026-04-25 11:16 | 20.77823 | -177.80595 | 39078 ft | 533 kts | 84° |
| 2026-04-25 11:16 | 20.78385 | -177.72689 | 39079 ft | 533 kts | 84° |
| 2026-04-25 11:17 | 20.78943 | -177.64793 | 39088 ft | 534 kts | 84° |
| 2026-04-25 11:17 | 20.79499 | -177.56885 | 39075 ft | 533 kts | 84° |
| 2026-04-25 11:18 | 20.80051 | -177.48974 | 39085 ft | 533 kts | 84° |
| 2026-04-25 11:18 | 20.80599 | -177.41063 | 39084 ft | 534 kts | 84° |
| 2026-04-25 11:19 | 20.81144 | -177.33143 | 39075 ft | 533 kts | 84° |
| 2026-04-25 11:19 | 20.81681 | -177.25286 | 39088 ft | 533 kts | 85° |
| 2026-04-25 11:20 | 20.82219 | -177.17365 | 39078 ft | 533 kts | 85° |
| 2026-04-25 11:20 | 20.82751 | -177.09470 | 39079 ft | 533 kts | 85° |
| 2026-04-25 11:21 | 20.83282 | -177.01547 | 39088 ft | 534 kts | 85° |
| 2026-04-25 11:21 | 20.83809 | -176.93632 | 39075 ft | 533 kts | 85° |
| 2026-04-25 11:22 | 20.84243 | -176.87058 | 39082 ft | 533 kts | 85° |
| 2026-04-25 11:22 | 20.84849 | -176.77836 | 39084 ft | 534 kts | 85° |
| 2026-04-25 11:23 | 20.85363 | -176.69930 | 39075 ft | 533 kts | 85° |
| 2026-04-25 11:23 | 20.85874 | -176.62027 | 39088 ft | 533 kts | 85° |
| 2026-04-25 11:24 | 20.86384 | -176.54088 | 39078 ft | 533 kts | 85° |
| 2026-04-25 11:24 | 20.86885 | -176.46230 | 39080 ft | 533 kts | 85° |
| 2026-04-25 11:25 | 20.87386 | -176.38318 | 39087 ft | 534 kts | 85° |
| 2026-04-25 11:25 | 20.87884 | -176.30388 | 39074 ft | 533 kts | 85° |
| 2026-04-25 11:26 | 20.88376 | -176.22482 | 39086 ft | 533 kts | 85° |
| 2026-04-25 11:26 | 20.88867 | -176.14554 | 39082 ft | 533 kts | 85° |
| 2026-04-25 11:27 | 20.89353 | -176.06639 | 39076 ft | 533 kts | 85° |
| 2026-04-25 11:27 | 20.89754 | -176.00067 | 39088 ft | 533 kts | 85° |
| 2026-04-25 11:28 | 20.90315 | -175.90799 | 39077 ft | 533 kts | 85° |
| 2026-04-25 11:28 | 20.90778 | -175.83009 | 39083 ft | 512 kts | 85° |
| 2026-04-25 11:29 | 20.91233 | -175.75436 | 39075 ft | 515 kts | 85° |
| 2026-04-25 11:29 | 20.91691 | -175.67722 | 39093 ft | 528 kts | 85° |
| 2026-04-25 11:30 | 20.92153 | -175.59855 | 39078 ft | 534 kts | 85° |
| 2026-04-25 11:30 | 20.92613 | -175.51932 | 39076 ft | 533 kts | 85° |
| 2026-04-25 11:31 | 20.93070 | -175.44003 | 39087 ft | 533 kts | 85° |
| 2026-04-25 11:31 | 20.93525 | -175.36076 | 39077 ft | 533 kts | 85° |
| 2026-04-25 11:32 | 20.93899 | -175.29493 | 39078 ft | 533 kts | 85° |
| 2026-04-25 11:32 | 20.94346 | -175.21561 | 39088 ft | 534 kts | 85° |
| 2026-04-25 11:33 | 20.94790 | -175.13642 | 39075 ft | 533 kts | 85° |
| 2026-04-25 11:33 | 20.95229 | -175.05717 | 39083 ft | 533 kts | 85° |
| 2026-04-25 11:34 | 20.95664 | -174.97822 | 39085 ft | 534 kts | 85° |
| 2026-04-25 11:34 | 20.96096 | -174.89907 | 39074 ft | 533 kts | 85° |
| 2026-04-25 11:35 | 20.96525 | -174.81969 | 39088 ft | 534 kts | 85° |
| 2026-04-25 11:35 | 20.96948 | -174.74090 | 39080 ft | 533 kts | 85° |
| 2026-04-25 11:36 | 20.97369 | -174.66162 | 39078 ft | 533 kts | 85° |
| 2026-04-25 11:36 | 20.97787 | -174.58237 | 39088 ft | 534 kts | 85° |
| 2026-04-25 11:37 | 20.98201 | -174.50314 | 39075 ft | 533 kts | 86° |
| 2026-04-25 11:37 | 20.98612 | -174.42379 | 39084 ft | 533 kts | 86° |
| 2026-04-25 11:38 | 20.99019 | -174.34444 | 39084 ft | 534 kts | 86° |
| 2026-04-25 11:38 | 20.99422 | -174.26515 | 39074 ft | 533 kts | 86° |
| 2026-04-25 11:39 | 20.99822 | -174.18586 | 39088 ft | 534 kts | 86° |
| 2026-04-25 11:39 | 21.00215 | -174.10702 | 39079 ft | 533 kts | 86° |
| 2026-04-25 11:40 | 21.00608 | -174.02763 | 39079 ft | 533 kts | 86° |
| 2026-04-25 11:40 | 21.00997 | -173.94819 | 39088 ft | 534 kts | 86° |
| 2026-04-25 11:41 | 21.01383 | -173.86869 | 39075 ft | 533 kts | 86° |
| 2026-04-25 11:41 | 21.01761 | -173.78987 | 39084 ft | 533 kts | 86° |
| 2026-04-25 11:42 | 21.02140 | -173.71037 | 39084 ft | 534 kts | 86° |
| 2026-04-25 11:42 | 21.02514 | -173.63104 | 39075 ft | 533 kts | 86° |
| 2026-04-25 11:43 | 21.02883 | -173.55177 | 39088 ft | 534 kts | 86° |
| 2026-04-25 11:43 | 21.03243 | -173.47308 | 39085 ft | 517 kts | 85° |
| 2026-04-25 11:44 | 21.03416 | -173.43504 | 39069 ft | 506 kts | 85° |
| 2026-04-25 11:44 | 21.03589 | -173.39751 | 39048 ft | 506 kts | 86° |
| 2026-04-25 11:44 | 21.03936 | -173.32191 | 39084 ft | 517 kts | 86° |
| 2026-04-25 11:45 | 21.04287 | -173.24379 | 39089 ft | 531 kts | 86° |
| 2026-04-25 11:45 | 21.04639 | -173.16448 | 39074 ft | 534 kts | 86° |
| 2026-04-25 11:46 | 21.04986 | -173.08513 | 39080 ft | 533 kts | 86° |
| 2026-04-25 11:46 | 21.05329 | -173.00618 | 39087 ft | 534 kts | 86° |
| 2026-04-25 11:47 | 21.05670 | -172.92686 | 39074 ft | 533 kts | 86° |
| 2026-04-25 11:47 | 21.06007 | -172.84746 | 39085 ft | 533 kts | 86° |
| 2026-04-25 11:48 | 21.06342 | -172.76798 | 39083 ft | 534 kts | 86° |
| 2026-04-25 11:48 | 21.06672 | -172.68857 | 39075 ft | 533 kts | 86° |
| 2026-04-25 11:49 | 21.06998 | -172.60916 | 39088 ft | 534 kts | 86° |
| 2026-04-25 11:49 | 21.07321 | -172.52970 | 39078 ft | 533 kts | 86° |
| 2026-04-25 11:50 | 21.07638 | -172.45084 | 39080 ft | 533 kts | 86° |
| 2026-04-25 11:50 | 21.07954 | -172.37129 | 39088 ft | 534 kts | 86° |
| 2026-04-25 11:51 | 21.08266 | -172.29195 | 39075 ft | 533 kts | 86° |
| 2026-04-25 11:51 | 21.08574 | -172.21249 | 39085 ft | 533 kts | 86° |
| 2026-04-25 11:52 | 21.08879 | -172.13293 | 39083 ft | 534 kts | 86° |
| 2026-04-25 11:52 | 21.09178 | -172.05395 | 39075 ft | 533 kts | 86° |
| 2026-04-25 11:53 | 21.09455 | -171.97445 | 39088 ft | 534 kts | 87° |
| 2026-04-25 11:53 | 21.09707 | -171.89493 | 39078 ft | 533 kts | 87° |
| 2026-04-25 11:54 | 21.09945 | -171.81600 | 39080 ft | 533 kts | 87° |
| 2026-04-25 11:55 | 21.10294 | -171.69683 | 39080 ft | 534 kts | 87° |
| 2026-04-25 11:55 | 21.10523 | -171.61747 | 39078 ft | 533 kts | 87° |
| 2026-04-25 11:56 | 21.10749 | -171.53791 | 39088 ft | 534 kts | 87° |
| 2026-04-25 11:56 | 21.10971 | -171.45835 | 39075 ft | 533 kts | 87° |
| 2026-04-25 11:57 | 21.11189 | -171.37877 | 39083 ft | 533 kts | 87° |
| 2026-04-25 11:57 | 21.11402 | -171.29977 | 39085 ft | 534 kts | 87° |
| 2026-04-25 11:58 | 21.11613 | -171.22015 | 39074 ft | 533 kts | 87° |
| 2026-04-25 11:58 | 21.11818 | -171.14078 | 39090 ft | 531 kts | 87° |
| 2026-04-25 11:58 | 21.11915 | -171.10183 | 39092 ft | 517 kts | 87° |
| 2026-04-25 11:59 | 21.12011 | -171.06369 | 39074 ft | 507 kts | 87° |
| 2026-04-25 11:59 | 21.12207 | -170.98795 | 39072 ft | 514 kts | 87° |
| 2026-04-25 12:00 | 21.12400 | -170.91040 | 39092 ft | 527 kts | 88° |
| 2026-04-25 12:00 | 21.12496 | -170.87098 | 39087 ft | 533 kts | 88° |
| 2026-04-25 12:01 | 21.12778 | -170.75206 | 39076 ft | 534 kts | 88° |
| 2026-04-25 12:01 | 21.12963 | -170.67255 | 39087 ft | 534 kts | 88° |
| 2026-04-25 12:02 | 21.13234 | -170.55316 | 39074 ft | 533 kts | 88° |
| 2026-04-25 12:02 | 21.13409 | -170.47378 | 39087 ft | 534 kts | 88° |
| 2026-04-25 12:03 | 21.13581 | -170.39456 | 39080 ft | 534 kts | 88° |
| 2026-04-25 12:03 | 21.13749 | -170.31513 | 39077 ft | 533 kts | 88° |
| 2026-04-25 12:04 | 21.13914 | -170.23552 | 39088 ft | 534 kts | 88° |
| 2026-04-25 12:04 | 21.14075 | -170.15593 | 39076 ft | 533 kts | 88° |
| 2026-04-25 12:05 | 21.14231 | -170.07698 | 39083 ft | 534 kts | 88° |
| 2026-04-25 12:05 | 21.14385 | -169.99747 | 39085 ft | 534 kts | 88° |
| 2026-04-25 12:06 | 21.14534 | -169.91797 | 39074 ft | 533 kts | 88° |
| 2026-04-25 12:06 | 21.14681 | -169.83829 | 39088 ft | 534 kts | 88° |
| 2026-04-25 12:07 | 21.14823 | -169.75873 | 39080 ft | 534 kts | 88° |
| 2026-04-25 12:07 | 21.14961 | -169.67961 | 39078 ft | 533 kts | 88° |
| 2026-04-25 12:08 | 21.15096 | -169.60020 | 39088 ft | 534 kts | 88° |
| 2026-04-25 12:08 | 21.15227 | -169.52054 | 39075 ft | 533 kts | 88° |
| 2026-04-25 12:09 | 21.15355 | -169.44101 | 39083 ft | 533 kts | 88° |
| 2026-04-25 12:09 | 21.15479 | -169.36133 | 39085 ft | 534 kts | 88° |
| 2026-04-25 12:10 | 21.15598 | -169.28230 | 39074 ft | 533 kts | 88° |
| 2026-04-25 12:10 | 21.15715 | -169.20266 | 39088 ft | 534 kts | 88° |
| 2026-04-25 12:11 | 21.15828 | -169.12303 | 39079 ft | 534 kts | 88° |
| 2026-04-25 12:11 | 21.15937 | -169.04342 | 39078 ft | 533 kts | 88° |
| 2026-04-25 12:12 | 21.16024 | -168.97746 | 39088 ft | 534 kts | 88° |
| 2026-04-25 12:12 | 21.16143 | -168.88495 | 39075 ft | 533 kts | 88° |
| 2026-04-25 12:13 | 21.16241 | -168.80542 | 39084 ft | 534 kts | 88° |
| 2026-04-25 12:13 | 21.16333 | -168.72637 | 39077 ft | 523 kts | 88° |
| 2026-04-25 12:14 | 21.16424 | -168.64765 | 39088 ft | 533 kts | 88° |
| 2026-04-25 12:14 | 21.16512 | -168.56797 | 39082 ft | 535 kts | 88° |
| 2026-04-25 12:15 | 21.16580 | -168.50191 | 39074 ft | 533 kts | 88° |
| 2026-04-25 12:15 | 21.16673 | -168.40940 | 39089 ft | 534 kts | 88° |
| 2026-04-25 12:16 | 21.16736 | -168.34307 | 39079 ft | 534 kts | 88° |
| 2026-04-25 12:16 | 21.16820 | -168.25022 | 39081 ft | 533 kts | 88° |
| 2026-04-25 12:17 | 21.16888 | -168.17104 | 39087 ft | 534 kts | 89° |
| 2026-04-25 12:17 | 21.16943 | -168.10443 | 39075 ft | 533 kts | 89° |
| 2026-04-25 12:18 | 21.17003 | -168.02540 | 39084 ft | 534 kts | 89° |
| 2026-04-25 12:18 | 21.17061 | -167.94573 | 39084 ft | 534 kts | 89° |
| 2026-04-25 12:19 | 21.17141 | -167.82647 | 39082 ft | 534 kts | 89° |
| 2026-04-25 12:20 | 21.17189 | -167.74682 | 39086 ft | 534 kts | 89° |
| 2026-04-25 12:20 | 21.17234 | -167.66726 | 39074 ft | 533 kts | 89° |
| 2026-04-25 12:21 | 21.17275 | -167.58768 | 39087 ft | 534 kts | 89° |
| 2026-04-25 12:21 | 21.17312 | -167.50808 | 39081 ft | 534 kts | 89° |
| 2026-04-25 12:22 | 21.17345 | -167.42903 | 39077 ft | 533 kts | 89° |
| 2026-04-25 12:22 | 21.17375 | -167.34943 | 39088 ft | 534 kts | 89° |
| 2026-04-25 12:23 | 21.17401 | -167.26982 | 39076 ft | 534 kts | 89° |
| 2026-04-25 12:23 | 21.17423 | -167.19025 | 39082 ft | 534 kts | 89° |
| 2026-04-25 12:24 | 21.17442 | -167.11052 | 39086 ft | 534 kts | 89° |
| 2026-04-25 12:24 | 21.17457 | -167.03147 | 39074 ft | 533 kts | 89° |
| 2026-04-25 12:25 | 21.17468 | -166.95183 | 39087 ft | 534 kts | 89° |
| 2026-04-25 12:25 | 21.17476 | -166.87225 | 39080 ft | 534 kts | 89° |
| 2026-04-25 12:26 | 21.17479 | -166.79252 | 39078 ft | 534 kts | 89° |
| 2026-04-25 12:26 | 21.17479 | -166.71297 | 39088 ft | 534 kts | 89° |
| 2026-04-25 12:27 | 21.17476 | -166.63384 | 39075 ft | 533 kts | 89° |
| 2026-04-25 12:27 | 21.17468 | -166.55404 | 39084 ft | 534 kts | 89° |
| 2026-04-25 12:28 | 21.17457 | -166.47439 | 39085 ft | 534 kts | 89° |
| 2026-04-25 12:28 | 21.17442 | -166.39533 | 39076 ft | 532 kts | 89° |
| 2026-04-25 12:28 | 21.17430 | -166.35601 | 39087 ft | 519 kts | 89° |
| 2026-04-25 12:29 | 21.17420 | -166.31773 | 39065 ft | 510 kts | 89° |
| 2026-04-25 12:29 | 21.17403 | -166.24086 | 39089 ft | 522 kts | 89° |
| 2026-04-25 12:30 | 21.17379 | -166.16191 | 39087 ft | 534 kts | 89° |
| 2026-04-25 12:30 | 21.17349 | -166.08230 | 39073 ft | 534 kts | 89° |
| 2026-04-25 12:31 | 21.17315 | -166.00273 | 39084 ft | 534 kts | 89° |
| 2026-04-25 12:31 | 21.17278 | -165.92350 | 39084 ft | 534 kts | 89° |
| 2026-04-25 12:32 | 21.17237 | -165.84396 | 39074 ft | 533 kts | 89° |
| 2026-04-25 12:32 | 21.17193 | -165.76433 | 39088 ft | 534 kts | 89° |
| 2026-04-25 12:33 | 21.17145 | -165.68447 | 39078 ft | 534 kts | 89° |
| 2026-04-25 12:33 | 21.17093 | -165.60554 | 39079 ft | 534 kts | 89° |
| 2026-04-25 12:34 | 21.17038 | -165.52597 | 39088 ft | 534 kts | 89° |
| 2026-04-25 12:34 | 21.16978 | -165.44610 | 39074 ft | 533 kts | 90° |
| 2026-04-25 12:35 | 21.16915 | -165.36669 | 39085 ft | 534 kts | 90° |
| 2026-04-25 12:35 | 21.16849 | -165.28688 | 39083 ft | 534 kts | 90° |
| 2026-04-25 12:36 | 21.16778 | -165.20741 | 39075 ft | 533 kts | 90° |
| 2026-04-25 12:36 | 21.16704 | -165.12771 | 39088 ft | 534 kts | 90° |
| 2026-04-25 12:37 | 21.16627 | -165.04863 | 39077 ft | 534 kts | 90° |
| 2026-04-25 12:37 | 21.16545 | -164.96905 | 39081 ft | 534 kts | 90° |
| 2026-04-25 12:38 | 21.16460 | -164.88935 | 39087 ft | 535 kts | 90° |
| 2026-04-25 12:38 | 21.16371 | -164.80986 | 39074 ft | 534 kts | 90° |
| 2026-04-25 12:39 | 21.16278 | -164.73017 | 39086 ft | 534 kts | 90° |
| 2026-04-25 12:39 | 21.16182 | -164.65057 | 39082 ft | 534 kts | 90° |
| 2026-04-25 12:40 | 21.16082 | -164.57145 | 39076 ft | 533 kts | 90° |
| 2026-04-25 12:40 | 21.15978 | -164.49189 | 39089 ft | 534 kts | 90° |
| 2026-04-25 12:41 | 21.15870 | -164.41216 | 39077 ft | 534 kts | 90° |
| 2026-04-25 12:41 | 21.15759 | -164.33259 | 39082 ft | 534 kts | 90° |
| 2026-04-25 12:42 | 21.15644 | -164.25301 | 39086 ft | 535 kts | 90° |
| 2026-04-25 12:42 | 21.15525 | -164.17350 | 39074 ft | 533 kts | 90° |
| 2026-04-25 12:43 | 21.15403 | -164.09447 | 39087 ft | 534 kts | 90° |
| 2026-04-25 12:43 | 21.15209 | -163.97535 | 39079 ft | 521 kts | 89° |
| 2026-04-25 12:44 | 21.15176 | -163.93702 | 39072 ft | 508 kts | 88° |
| 2026-04-25 12:44 | 21.15226 | -163.89930 | 39053 ft | 505 kts | 87° |
| 2026-04-25 12:44 | 21.15430 | -163.82309 | 39082 ft | 517 kts | 85° |
| 2026-04-25 12:45 | 21.15562 | -163.78436 | 39091 ft | 524 kts | 85° |
| 2026-04-25 12:45 | 21.15982 | -163.66503 | 39077 ft | 540 kts | 85° |
| 2026-04-25 12:46 | 21.16251 | -163.58503 | 39077 ft | 540 kts | 85° |
| 2026-04-25 12:46 | 21.16517 | -163.50463 | 39087 ft | 540 kts | 85° |
| 2026-04-25 12:47 | 21.16781 | -163.42408 | 39077 ft | 539 kts | 85° |
| 2026-04-25 12:47 | 21.17039 | -163.34385 | 39080 ft | 540 kts | 85° |
| 2026-04-25 12:48 | 21.17296 | -163.26327 | 39087 ft | 540 kts | 85° |
| 2026-04-25 12:48 | 21.17546 | -163.18344 | 39074 ft | 539 kts | 85° |
| 2026-04-25 12:49 | 21.17795 | -163.10291 | 39086 ft | 540 kts | 85° |
| 2026-04-25 12:49 | 21.18040 | -163.02249 | 39081 ft | 540 kts | 86° |
| 2026-04-25 12:50 | 21.18280 | -162.94207 | 39077 ft | 539 kts | 86° |
| 2026-04-25 12:50 | 21.18517 | -162.86168 | 39088 ft | 540 kts | 86° |
| 2026-04-25 12:51 | 21.18750 | -162.78125 | 39076 ft | 539 kts | 86° |
| 2026-04-25 12:51 | 21.18979 | -162.70085 | 39083 ft | 540 kts | 86° |
| 2026-04-25 12:52 | 21.19204 | -162.62069 | 39085 ft | 540 kts | 86° |
| 2026-04-25 12:52 | 21.19426 | -162.54034 | 39075 ft | 539 kts | 86° |
| 2026-04-25 12:53 | 21.19643 | -162.45984 | 39087 ft | 540 kts | 86° |
| 2026-04-25 12:53 | 21.19858 | -162.37938 | 39080 ft | 540 kts | 86° |
| 2026-04-25 12:54 | 21.20068 | -162.29895 | 39078 ft | 540 kts | 86° |
| 2026-04-25 12:54 | 21.20275 | -162.21838 | 39088 ft | 540 kts | 86° |
| 2026-04-25 12:55 | 21.20410 | -162.16502 | 39080 ft | 540 kts | 86° |
| 2026-04-25 12:55 | 21.20675 | -162.05785 | 39084 ft | 540 kts | 86° |
| 2026-04-25 12:56 | 21.20871 | -161.97730 | 39084 ft | 541 kts | 86° |
| 2026-04-25 12:56 | 21.21062 | -161.89673 | 39074 ft | 539 kts | 86° |
| 2026-04-25 12:57 | 21.21248 | -161.81691 | 39090 ft | 540 kts | 86° |
| 2026-04-25 12:57 | 21.21428 | -161.73706 | 39075 ft | 532 kts | 86° |
| 2026-04-25 12:58 | 21.21606 | -161.65780 | 39083 ft | 533 kts | 86° |
| 2026-04-25 12:58 | 21.21786 | -161.57850 | 39088 ft | 520 kts | 87° |
| 2026-04-25 12:59 | 21.21866 | -161.54022 | 39074 ft | 507 kts | 87° |
| 2026-04-25 12:59 | 21.21942 | -161.50307 | 39057 ft | 504 kts | 86° |
| 2026-04-25 12:59 | 21.22099 | -161.42694 | 39083 ft | 516 kts | 86° |
| 2026-04-25 13:00 | 21.22210 | -161.37503 | 39093 ft | 526 kts | 86° |
| 2026-04-25 13:00 | 21.22400 | -161.28273 | 39077 ft | 535 kts | 86° |
| 2026-04-25 13:01 | 21.22554 | -161.20313 | 39077 ft | 534 kts | 86° |
| 2026-04-25 13:01 | 21.22706 | -161.12335 | 39088 ft | 534 kts | 86° |
| 2026-04-25 13:02 | 21.22973 | -161.04433 | 39077 ft | 532 kts | 83° |
| 2026-04-25 13:02 | 21.23635 | -160.96570 | 39080 ft | 527 kts | 81° |
| 2026-04-25 13:03 | 21.24408 | -160.88769 | 39095 ft | 524 kts | 81° |
| 2026-04-25 13:03 | 21.25175 | -160.81018 | 39114 ft | 521 kts | 81° |
| 2026-04-25 13:04 | 21.25928 | -160.73294 | 39128 ft | 521 kts | 81° |
| 2026-04-25 13:04 | 21.26670 | -160.65563 | 39102 ft | 520 kts | 82° |
| 2026-04-25 13:05 | 21.27400 | -160.57883 | 39121 ft | 521 kts | 82° |
| 2026-04-25 13:05 | 21.28136 | -160.50132 | 39125 ft | 522 kts | 82° |
| 2026-04-25 13:06 | 21.28866 | -160.42410 | 39113 ft | 520 kts | 82° |
| 2026-04-25 13:06 | 21.29594 | -160.34669 | 39127 ft | 521 kts | 82° |
| 2026-04-25 13:07 | 21.30314 | -160.26979 | 39119 ft | 521 kts | 82° |
| 2026-04-25 13:07 | 21.31034 | -160.19248 | 39117 ft | 521 kts | 82° |
| 2026-04-25 13:08 | 21.31753 | -160.11493 | 39127 ft | 522 kts | 82° |
| 2026-04-25 13:08 | 21.32468 | -160.03743 | 39114 ft | 521 kts | 82° |
| 2026-04-25 13:09 | 21.33178 | -159.95995 | 39126 ft | 522 kts | 82° |
| 2026-04-25 13:09 | 21.33886 | -159.88250 | 39015 ft | 524 kts | 82° |
| 2026-04-25 13:10 | 21.34242 | -159.84340 | 38399 ft | 524 kts | 82° |
| 2026-04-25 13:10 | 21.34589 | -159.80483 | 37774 ft | 517 kts | 82° |
| 2026-04-25 13:10 | 21.34928 | -159.76714 | 37136 ft | 509 kts | 82° |
| 2026-04-25 13:10 | 21.35265 | -159.72963 | 36505 ft | 502 kts | 81° |
| 2026-04-25 13:11 | 21.35598 | -159.69254 | 35881 ft | 494 kts | 81° |
| 2026-04-25 13:11 | 21.35924 | -159.65630 | 35276 ft | 487 kts | 81° |
| 2026-04-25 13:11 | 21.36250 | -159.62003 | 34670 ft | 488 kts | 81° |
| 2026-04-25 13:11 | 21.36580 | -159.58361 | 34064 ft | 493 kts | 82° |
| 2026-04-25 13:12 | 21.36911 | -159.54680 | 33447 ft | 495 kts | 82° |
| 2026-04-25 13:12 | 21.37239 | -159.50999 | 32826 ft | 493 kts | 82° |
| 2026-04-25 13:12 | 21.37563 | -159.47349 | 32209 ft | 488 kts | 82° |
| 2026-04-25 13:12 | 21.37772 | -159.44981 | 31809 ft | 482 kts | 82° |
| 2026-04-25 13:13 | 21.38186 | -159.40288 | 31019 ft | 471 kts | 83° |
| 2026-04-25 13:13 | 21.38431 | -159.37494 | 30551 ft | 467 kts | 83° |
| 2026-04-25 13:13 | 21.38537 | -159.36288 | 30355 ft | 466 kts | 83° |
| 2026-04-25 13:13 | 21.38837 | -159.32853 | 29795 ft | 459 kts | 83° |
| 2026-04-25 13:14 | 21.39152 | -159.29398 | 29209 ft | 476 kts | 85° |
| 2026-04-25 13:14 | 21.39453 | -159.25833 | 28617 ft | 476 kts | 84° |
| 2026-04-25 13:14 | 21.39751 | -159.22344 | 28016 ft | 463 kts | 83° |
| 2026-04-25 13:14 | 21.40046 | -159.18954 | 27441 ft | 452 kts | 84° |
| 2026-04-25 13:15 | 21.40339 | -159.15610 | 26879 ft | 442 kts | 84° |
| 2026-04-25 13:15 | 21.40621 | -159.12363 | 26334 ft | 432 kts | 84° |
| 2026-04-25 13:15 | 21.40895 | -159.09201 | 25792 ft | 429 kts | 84° |
| 2026-04-25 13:15 | 21.41173 | -159.05993 | 25244 ft | 437 kts | 84° |
| 2026-04-25 13:16 | 21.41453 | -159.02741 | 24694 ft | 435 kts | 84° |
| 2026-04-25 13:16 | 21.41729 | -158.99526 | 24153 ft | 431 kts | 84° |
| 2026-04-25 13:16 | 21.42001 | -158.96333 | 23618 ft | 427 kts | 84° |
| 2026-04-25 13:16 | 21.42271 | -158.93162 | 23087 ft | 424 kts | 84° |
| 2026-04-25 13:17 | 21.42539 | -158.90012 | 22558 ft | 422 kts | 84° |
| 2026-04-25 13:17 | 21.42805 | -158.86880 | 22027 ft | 421 kts | 84° |
| 2026-04-25 13:17 | 21.43069 | -158.83768 | 21501 ft | 418 kts | 84° |
| 2026-04-25 13:17 | 21.43329 | -158.80701 | 20985 ft | 416 kts | 84° |
| 2026-04-25 13:18 | 21.43592 | -158.77590 | 20462 ft | 413 kts | 84° |
| 2026-04-25 13:18 | 21.43848 | -158.74556 | 19953 ft | 411 kts | 84° |
| 2026-04-25 13:18 | 21.44104 | -158.71516 | 19444 ft | 408 kts | 84° |
| 2026-04-25 13:18 | 21.44359 | -158.68483 | 18936 ft | 404 kts | 84° |
| 2026-04-25 13:19 | 21.44609 | -158.65498 | 18433 ft | 400 kts | 84° |
| 2026-04-25 13:19 | 21.44856 | -158.62537 | 17936 ft | 396 kts | 84° |
| 2026-04-25 13:19 | 21.45100 | -158.59598 | 17443 ft | 394 kts | 84° |
| 2026-04-25 13:19 | 21.45261 | -158.57660 | 17118 ft | 392 kts | 84° |
| 2026-04-25 13:20 | 21.45585 | -158.53757 | 16409 ft | 391 kts | 84° |
| 2026-04-25 13:20 | 21.45733 | -158.50873 | 15857 ft | 391 kts | 89° |
| 2026-04-25 13:20 | 21.45605 | -158.48842 | 15427 ft | 390 kts | 95° |
| 2026-04-25 13:20 | 21.45080 | -158.46068 | 14854 ft | 386 kts | 104° |
| 2026-04-25 13:21 | 21.44145 | -158.43395 | 14409 ft | 378 kts | 112° |
| 2026-04-25 13:21 | 21.43032 | -158.40852 | 14017 ft | 373 kts | 115° |
| 2026-04-25 13:21 | 21.41913 | -158.38340 | 13646 ft | 375 kts | 115° |
| 2026-04-25 13:21 | 21.40778 | -158.35793 | 13280 ft | 377 kts | 115° |
| 2026-04-25 13:22 | 21.39657 | -158.33283 | 12921 ft | 369 kts | 115° |
| 2026-04-25 13:22 | 21.38562 | -158.30839 | 12666 ft | 358 kts | 115° |
| 2026-04-25 13:22 | 21.37490 | -158.28454 | 12407 ft | 360 kts | 115° |
| 2026-04-25 13:23 | 21.35327 | -158.23659 | 10693 ft | 353 kts | 115° |
| 2026-04-25 13:23 | 21.34207 | -158.21334 | 9693 ft | 349 kts | 118° |
| 2026-04-25 13:23 | 21.32970 | -158.19103 | 8694 ft | 344 kts | 119° |
| 2026-04-25 13:23 | 21.31938 | -158.16822 | 7625 ft | 337 kts | 107° |
| 2026-04-25 13:24 | 21.31640 | -158.14381 | 6608 ft | 324 kts | 87° |
| 2026-04-25 13:24 | 21.32147 | -158.12118 | 5621 ft | 303 kts | 67° |
| 2026-04-25 13:24 | 21.32983 | -158.10170 | 4747 ft | 278 kts | 68° |
| 2026-04-25 13:24 | 21.33182 | -158.08235 | 3738 ft | 250 kts | 90° |
| 2026-04-25 13:25 | 21.32595 | -158.06530 | 2902 ft | 237 kts | 111° |
| 2026-04-25 13:25 | 21.32133 | -158.04996 | 2268 ft | 205 kts | 97° |
| 2026-04-25 13:25 | 21.32408 | -158.03628 | 1918 ft | 171 kts | 72° |
| 2026-04-25 13:25 | 21.32523 | -158.02372 | 1581 ft | 167 kts | 84° |
| 2026-04-25 13:26 | 21.32537 | -158.01180 | 1311 ft | 152 kts | 86° |
| 2026-04-25 13:26 | 21.32530 | -158.00080 | 1104 ft | 145 kts | 87° |
| 2026-04-25 13:26 | 21.32522 | -157.99008 | 909 ft | 142 kts | 88° |
| 2026-04-25 13:26 | 21.32520 | -157.97954 | 721 ft | 141 kts | 88° |
| 2026-04-25 13:27 | 21.32523 | -157.96906 | 536 ft | 140 kts | 89° |
| 2026-04-25 13:27 | 21.32526 | -157.95847 | 352 ft | 146 kts | 89° |
| 2026-04-25 13:27 | 21.32526 | -157.94757 | 144 ft | 148 kts | 90° |
| 2026-04-25 13:27 | 21.32523 | -157.93668 | 30 ft | 140 kts | 90° |
| 2026-04-25 13:28 | 21.32525 | -157.92828 | 26 ft | 76 kts | 89° |
| 2026-04-25 13:28 | 21.32525 | -157.92672 | 26 ft | 47 kts | 90° |
| 2026-04-25 13:28 | 21.32522 | -157.92352 | 26 ft | 17 kts | 88° |
| 2026-04-25 13:28 | 21.32550 | -157.92278 | 26 ft | 10 kts | 34° |
| 2026-04-25 13:29 | 21.32630 | -157.92269 | 26 ft | 15 kts | 358° |
| 2026-04-25 13:29 | 21.32728 | -157.92271 | 26 ft | 15 kts | 358° |
| 2026-04-25 13:29 | 21.32821 | -157.92315 | 26 ft | 17 kts | 330° |
| 2026-04-25 13:30 | 21.32879 | -157.92351 | 26 ft | 0 kts | 331° |